Terminal Aerodrome Forecast
Issued by NWS

Home | Current Version | Previous Version | Text Only | Print | Product List | Glossary On
Versions: 1 2 3 4 5 6 7 8 9 10 11 12 13 14 15 16 17 18 19 20 21 22 23 24 25 26 27 28 29 30 31 32 33
000
FTUS45 KSLC 031859 AAB
TAFBCE
TAF AMD
KBCE 031859Z 0319/0418 04010G18KT P6SM -RA SCT060 BKN080
      TEMPO 0319/0321 3SM -TSRA BKN060CB OVC080
     FM032100 24010KT P6SM VCSH SCT060 BKN100
     FM040000 25006KT P6SM BKN100
     FM041600 23010KT P6SM SCT060 BKN100=

USA.gov is the U.S. government's official web portal to all federal, state and local government web resources and services.